Time;durP1;ratioP1;P1;durP2;ratioP2;P2;SDS_P1;SDS_P2;PMS_P1;PMS_P2;Temp;Humidity;BMP_temperature;BMP_pressure;BME280_temperature;BME280_humidity;BME280_pressure;Samples;Min_cycle;Max_cycle;Signal;HPM_P1;HPM_P2
2023/10/27 00:02:23;;;;;;;;;;;;;;;13.37;100.00;97567.97;4942858;29;19930;-89
2023/10/27 00:04:48;;;;;;;;;;;;;;;13.39;100.00;97558.00;4929135;29;20299;-88
2023/10/27 00:07:13;;;;;;;;;;;;;;;13.39;100.00;97567.78;4942983;29;20392;-88
2023/10/27 00:09:39;;;;;;;;;;;;;;;13.34;100.00;97565.75;4942918;29;19923;-88
2023/10/27 00:12:05;;;;;;;;;;;;;;;13.36;100.00;97547.03;4944134;29;19929;-88
2023/10/27 00:14:30;;;;;;;;;;;;;;;13.40;100.00;97525.19;4944479;29;20388;-88
2023/10/27 00:16:56;;;;;;;;;;;;;;;13.44;100.00;97512.31;4943714;29;19998;-87
2023/10/27 00:19:21;;;;;;;;;;;;;;;13.45;100.00;97514.78;4943467;29;19930;-87
2023/10/27 00:21:47;;;;;;;;;;;;;;;13.41;100.00;97545.38;4946349;29;19923;-88
2023/10/27 00:24:12;;;;;;;;;;;;;;;13.39;100.00;97570.44;4925353;29;19979;-87
2023/10/27 00:26:37;;;;;;;;;;;;;;;13.37;100.00;97575.16;4928501;29;19969;-88
2023/10/27 00:29:03;;;;;;;;;;;;;;;13.33;100.00;97574.72;4944173;29;20328;-88
2023/10/27 00:31:28;;;;;;;;;;;;;;;13.31;100.00;97579.41;4922407;29;19923;-89
2023/10/27 00:33:53;;;;;;;;;;;;;;;13.32;100.00;97573.09;4946171;29;20025;-89
2023/10/27 00:36:19;;;;;;;;;;;;;;;13.31;100.00;97576.75;4946612;29;19970;-89
2023/10/27 00:38:47;;;;;;;;;;;;;;;13.33;100.00;97560.66;4943646;29;19926;-89
2023/10/27 00:41:13;;;;;;;;;;;;;;;13.33;100.00;97574.72;4939250;29;20015;-90
2023/10/27 00:43:38;;;;;;;;;;;;;;;13.32;100.00;97577.56;4944749;29;19923;-89
2023/10/27 00:46:04;;;;;;;;;;;;;;;13.31;100.00;97576.75;4941541;29;19922;-89
2023/10/27 00:48:30;;;;;;;;;;;;;;;13.30;100.00;97572.50;4924173;29;19927;-89
2023/10/27 00:50:55;;;;;;;;;;;;;;;13.37;100.00;97570.63;4927980;29;20299;-88
2023/10/27 00:53:21;;;;;;;;;;;;;;;13.41;100.00;97577.16;4946553;29;19923;-87
2023/10/27 00:55:46;;;;;;;;;;;;;;;13.40;100.00;97570.22;4943688;29;19922;-88
2023/10/27 00:58:13;;;;;;;;;;;;;;;13.46;100.00;97564.09;4938177;29;20034;-89
2023/10/27 01:00:38;;;;;;;;;;;;;;;13.43;100.00;97558.41;4924728;29;20017;-87
2023/10/27 01:03:04;;;;;;;;;;;;;;;13.45;100.00;97546.56;4941903;29;20021;-88
2023/10/27 01:05:29;;;;;;;;;;;;;;;13.45;100.00;97535.97;4945171;29;19922;-87
2023/10/27 01:07:55;;;;;;;;;;;;;;;13.45;100.00;97546.56;4946182;29;19946;-88
2023/10/27 01:10:21;;;;;;;;;;;;;;;13.50;100.00;97533.50;4941450;29;20467;-88
2023/10/27 01:12:50;;;;;;;;;;;;;;;13.53;100.00;97527.78;4943171;29;19929;-87
2023/10/27 01:15:16;;;;;;;;;;;;;;;13.49;100.00;97515.97;4942330;29;19923;-88
2023/10/27 01:17:42;;;;;;;;;;;;;;;13.48;100.00;97517.03;4952701;29;20410;-87
2023/10/27 01:20:08;;;;;;;;;;;;;;;13.47;100.00;97496.84;4942176;29;19930;-85
2023/10/27 01:22:39;;;;;;;;;;;;;;;13.44;100.00;97489.31;4949803;29;20288;-88
2023/10/27 01:25:05;;;;;;;;;;;;;;;13.46;100.00;97489.09;4941882;29;20010;-88
2023/10/27 01:27:30;;;;;;;;;;;;;;;13.48;100.00;97456.09;4944571;29;20370;-89
2023/10/27 01:29:55;;;;;;;;;;;;;;;13.46;100.00;97442.22;4943843;29;19991;-88
2023/10/27 01:32:21;;;;;;;;;;;;;;;13.52;100.00;97441.38;4941478;29;19923;-89
2023/10/27 01:34:46;;;;;;;;;;;;;;;13.48;100.00;97445.47;4948440;29;20041;-89
2023/10/27 01:37:11;;;;;;;;;;;;;;;13.50;100.00;97443.41;4926919;29;19923;-90
2023/10/27 01:39:37;;;;;;;;;;;;;;;13.53;100.00;97443.00;4942015;29;19930;-89
2023/10/27 01:42:02;;;;;;;;;;;;;;;13.57;100.00;97453.16;4945115;29;19929;-89
2023/10/27 01:44:27;;;;;;;;;;;;;;;13.53;100.00;97443.00;4949547;29;20021;-89
2023/10/27 01:46:54;;;;;;;;;;;;;;;13.51;100.00;97407.94;4945456;29;19922;-89
2023/10/27 01:49:19;;;;;;;;;;;;;;;13.55;100.00;97402.25;4946403;29;19923;-89
2023/10/27 01:51:44;;;;;;;;;;;;;;;13.53;100.00;97390.00;4929344;29;20330;-87
2023/10/27 01:54:10;;;;;;;;;;;;;;;13.59;100.00;97363.69;4931617;29;19926;-88
2023/10/27 01:56:35;;;;;;;;;;;;;;;13.60;100.00;97368.78;4930054;29;19970;-87
2023/10/27 01:59:00;;;;;;;;;;;;;;;13.56;100.00;97388.75;4944774;29;19922;-88
2023/10/27 02:01:26;;;;;;;;;;;;;;;13.50;100.00;97379.81;4934351;29;20372;-88
2023/10/27 02:03:51;;;;;;;;;;;;;;;13.53;100.00;97411.22;4931376;29;19962;-89
2023/10/27 02:06:23;;;;;;;;;;;;;;;13.42;100.00;97456.13;4953076;29;19923;-89
2023/10/27 02:08:49;;;;;;;;;;;;;;;13.29;100.00;97467.56;4940198;29;20050;-87
2023/10/27 02:11:14;;;;;;;;;;;;;;;13.23;100.00;97473.72;4949543;29;19962;-87
2023/10/27 02:13:40;;;;;;;;;;;;;;;13.17;100.00;97479.84;4937872;29;20030;-88
2023/10/27 02:16:05;;;;;;;;;;;;;;;13.16;100.00;97475.56;4944945;29;19991;-87
2023/10/27 02:18:30;;;;;;;;;;;;;;;13.15;100.00;97451.94;4955044;29;19911;-88
2023/10/27 02:20:56;;;;;;;;;;;;;;;13.18;100.00;97439.09;4956378;29;19938;-88
2023/10/27 02:23:21;;;;;;;;;;;;;;;13.22;100.00;97431.53;4955898;29;19930;-86
2023/10/27 02:25:47;;;;;;;;;;;;;;;13.23;100.00;97415.44;4965222;29;20021;-88
2023/10/27 02:28:12;;;;;;;;;;;;;;;13.19;100.00;97422.19;4968586;29;19931;-88
2023/10/27 02:30:38;;;;;;;;;;;;;;;13.22;100.00;97403.22;4936841;29;19935;-87
2023/10/27 02:33:03;;;;;;;;;;;;;;;13.27;100.00;97400.75;4956221;29;19922;-88
2023/10/27 02:35:29;;;;;;;;;;;;;;;13.32;100.00;97408.88;4974998;29;19922;-87
2023/10/27 02:37:55;;;;;;;;;;;;;;;13.36;100.00;97398.69;4970496;29;20743;-88
2023/10/27 02:40:20;;;;;;;;;;;;;;;13.39;100.00;97408.84;4953698;29;20032;-87
2023/10/27 02:42:46;;;;;;;;;;;;;;;13.38;100.00;97452.25;4964795;29;19933;-88
2023/10/27 02:45:14;;;;;;;;;;;;;;;13.36;100.00;97449.81;4957776;29;19958;-87
2023/10/27 02:47:39;;;;;;;;;;;;;;;13.35;100.00;97432.31;4971402;29;19914;-88
2023/10/27 02:50:04;;;;;;;;;;;;;;;13.39;100.00;97419.44;4969307;29;19931;-88
2023/10/27 02:52:30;;;;;;;;;;;;;;;13.39;100.00;97411.47;4964991;29;19910;-89
2023/10/27 02:54:55;;;;;;;;;;;;;;;13.39;100.00;97361.97;4967066;29;19955;-88
2023/10/27 02:57:20;;;;;;;;;;;;;;;13.40;100.00;97323.84;4970388;29;19990;-88
2023/10/27 02:59:46;;;;;;;;;;;;;;;13.41;100.00;97312.25;4967043;29;19974;-89
2023/10/27 03:02:11;;;;;;;;;;;;;;;13.43;100.00;97294.28;4952860;29;19930;-89
2023/10/27 03:04:36;;;;;;;;;;;;;;;13.44;100.00;97285.31;4967503;29;19934;-89
2023/10/27 03:07:02;;;;;;;;;;;;;;;13.45;100.00;97268.38;4967980;29;19930;-88
2023/10/27 03:09:27;;;;;;;;;;;;;;;13.47;100.00;97273.47;4976053;29;19911;-89
2023/10/27 03:11:53;;;;;;;;;;;;;;;13.43;100.00;97306.72;4950322;29;19919;-88
2023/10/27 03:14:18;;;;;;;;;;;;;;;13.38;100.00;97338.34;4959069;29;20383;-89
2023/10/27 03:16:43;;;;;;;;;;;;;;;13.37;100.00;97364.00;4949524;29;19933;-90
2023/10/27 03:19:09;;;;;;;;;;;;;;;13.38;100.00;97370.94;4931098;29;19923;-89
2023/10/27 03:21:35;;;;;;;;;;;;;;;13.36;100.00;97383.59;4930361;29;20375;-90
2023/10/27 03:24:00;;;;;;;;;;;;;;;13.29;100.00;97382.81;4945500;29;19930;-90
2023/10/27 03:26:26;;;;;;;;;;;;;;;13.34;100.00;97398.06;4945671;29;19930;-89
2023/10/27 03:28:51;;;;;;;;;;;;;;;13.37;100.00;97406.38;4947475;29;19923;-90
2023/10/27 03:31:19;;;;;;;;;;;;;;;13.36;100.00;97419.88;4947437;29;19929;-91
2023/10/27 03:33:44;;;;;;;;;;;;;;;13.35;100.00;97423.53;4927016;29;19923;-90
2023/10/27 03:36:10;;;;;;;;;;;;;;;13.39;100.00;97420.25;4929183;29;19962;-90
2023/10/27 03:38:36;;;;;;;;;;;;;;;13.38;100.00;97408.03;4943067;29;19938;-90
2023/10/27 03:41:02;;;;;;;;;;;;;;;13.36;100.00;97399.50;4945615;29;19927;-90
2023/10/27 03:43:28;;;;;;;;;;;;;;;13.33;100.00;97410.50;4931088;29;19922;-89
2023/10/27 03:45:54;;;;;;;;;;;;;;;13.36;100.00;97407.44;4928488;29;19930;-90
2023/10/27 03:48:21;;;;;;;;;;;;;;;13.40;100.00;97402.50;4926308;29;19923;-90
2023/10/27 03:50:46;;;;;;;;;;;;;;;13.43;100.00;97394.94;4918030;29;19923;-89
2023/10/27 03:53:11;;;;;;;;;;;;;;;13.43;100.00;97399.47;4925429;29;19930;-90
2023/10/27 03:55:37;;;;;;;;;;;;;;;13.37;100.00;97393.16;4942893;29;19931;-90
2023/10/27 03:58:13;;;;;;;;;;;;;;;13.43;100.00;97379.03;4927207;29;19927;-89
2023/10/27 04:00:38;;;;;;;;;;;;;;;13.46;100.00;97373.34;4946259;29;19930;-89
2023/10/27 04:03:04;;;;;;;;;;;;;;;13.47;100.00;97380.25;4947692;29;19922;-89
2023/10/27 04:05:29;;;;;;;;;;;;;;;13.46;100.00;97373.34;4945674;28;20402;-89
2023/10/27 04:07:54;;;;;;;;;;;;;;;13.44;100.00;97383.31;4944216;29;19918;-89
2023/10/27 04:10:21;;;;;;;;;;;;;;;13.45;100.00;97382.31;4925957;29;19925;-88
2023/10/27 04:12:46;;;;;;;;;;;;;;;13.39;100.00;97377.03;4946021;29;19922;-88
2023/10/27 04:15:12;;;;;;;;;;;;;;;13.36;100.00;97383.59;4933301;29;19924;-88
2023/10/27 04:17:37;;;;;;;;;;;;;;;13.32;100.00;97369.13;4948838;29;19931;-87
2023/10/27 04:20:03;;;;;;;;;;;;;;;13.32;100.00;97366.47;4944700;29;19923;-88
2023/10/27 04:22:29;;;;;;;;;;;;;;;13.30;100.00;97365.09;4944104;29;19922;-88
2023/10/27 04:24:54;;;;;;;;;;;;;;;13.29;100.00;97377.53;4942941;29;19977;-87
2023/10/27 04:27:19;;;;;;;;;;;;;;;13.23;100.00;97394.25;4945272;29;19926;-88
2023/10/27 04:29:46;;;;;;;;;;;;;;;13.19;100.00;97387.78;4942166;29;20402;-88
2023/10/27 04:32:12;;;;;;;;;;;;;;;13.22;100.00;97387.34;4962511;23;19930;-75
2023/10/27 04:34:38;;;;;;;;;;;;;;;13.23;100.00;97365.13;4941785;29;21414;-75
2023/10/27 04:37:03;;;;;;;;;;;;;;;13.22;100.00;97387.34;4943077;29;19950;-76
2023/10/27 04:39:29;;;;;;;;;;;;;;;13.23;100.00;97398.75;4925587;29;19923;-77
2023/10/27 04:41:54;;;;;;;;;;;;;;;13.22;100.00;97400.56;4944113;29;19919;-77
2023/10/27 04:44:23;;;;;;;;;;;;;;;13.18;100.00;97402.03;4947146;29;19929;-77
2023/10/27 04:46:50;;;;;;;;;;;;;;;13.21;100.00;97406.06;4948546;29;19958;-76
2023/10/27 04:49:15;;;;;;;;;;;;;;;13.20;100.00;97407.91;4952331;29;20729;-76
2023/10/27 04:51:41;;;;;;;;;;;;;;;13.16;100.00;97404.06;4952114;29;19922;-75
2023/10/27 04:54:06;;;;;;;;;;;;;;;13.12;100.00;97402.88;4951849;29;19966;-76
2023/10/27 04:56:33;;;;;;;;;;;;;;;13.06;100.00;97419.56;4952315;29;19922;-76
2023/10/27 04:58:58;;;;;;;;;;;;;;;12.98;100.00;97423.25;4951946;29;19981;-78
2023/10/27 05:01:25;;;;;;;;;;;;;;;12.99;100.00;97418.78;4948519;29;19926;-77
2023/10/27 05:03:51;;;;;;;;;;;;;;;12.97;100.00;97426.09;4923959;29;19923;-79
2023/10/27 05:06:16;;;;;;;;;;;;;;;12.96;100.00;97413.91;4937399;28;19930;-78
2023/10/27 05:08:42;;;;;;;;;;;;;;;12.95;100.00;97401.69;4942920;29;19978;-78
2023/10/27 05:11:08;;;;;;;;;;;;;;;12.88;100.00;97409.66;4942797;28;19931;-75
2023/10/27 05:13:33;;;;;;;;;;;;;;;12.89;100.00;97419.22;4943975;29;19926;-77
2023/10/27 05:15:59;;;;;;;;;;;;;;;12.89;100.00;97418.41;4951415;29;19922;-76
2023/10/27 05:18:25;;;;;;;;;;;;;;;12.89;100.00;97413.94;4952407;28;19922;-75
2023/10/27 05:20:51;;;;;;;;;;;;;;;12.89;100.00;97413.13;4942807;29;19918;-77
2023/10/27 05:23:16;;;;;;;;;;;;;;;12.87;100.00;97425.75;4941525;29;19923;-78
2023/10/27 05:25:41;;;;;;;;;;;;;;;12.85;100.00;97422.47;4944668;29;19986;-77
2023/10/27 05:28:10;;;;;;;;;;;;;;;12.81;100.00;97426.56;4943725;28;20017;-78
2023/10/27 05:30:36;;;;;;;;;;;;;;;12.72;100.00;97432.09;4940788;29;19926;-74
2023/10/27 05:33:02;;;;;;;;;;;;;;;12.71;100.00;97430.47;4940508;29;19942;-77
2023/10/27 05:35:27;;;;;;;;;;;;;;;12.71;100.00;97433.13;4944765;28;19946;-77
2023/10/27 05:37:52;;;;;;;;;;;;;;;12.64;100.00;97429.69;4937772;29;19945;-75
2023/10/27 05:40:18;;;;;;;;;;;;;;;12.64;100.00;97434.97;4949528;29;19922;-75
2023/10/27 05:42:43;;;;;;;;;;;;;;;12.61;100.00;97443.31;4947938;29;19923;-76
2023/10/27 05:45:11;;;;;;;;;;;;;;;12.58;100.00;97450.84;4928151;29;19923;-77
2023/10/27 05:47:38;;;;;;;;;;;;;;;12.58;100.00;97462.25;4946747;29;19927;-76
2023/10/27 05:50:04;;;;;;;;;;;;;;;12.57;100.00;97454.50;4947995;29;19926;-77
2023/10/27 05:52:30;;;;;;;;;;;;;;;12.61;100.00;97464.47;4944159;29;20338;-75
2023/10/27 05:54:57;;;;;;;;;;;;;;;12.58;100.00;97470.19;4946148;29;19929;-76
2023/10/27 05:57:22;;;;;;;;;;;;;;;12.58;100.00;97475.47;4942843;29;20353;-74
2023/10/27 05:59:48;;;;;;;;;;;;;;;12.60;100.00;97483.22;4945336;29;19929;-76
2023/10/27 06:02:13;;;;;;;;;;;;;;;12.58;100.00;97475.47;4944192;29;19987;-77
2023/10/27 06:04:39;;;;;;;;;;;;;;;12.51;100.00;97490.53;4946736;28;20367;-75
2023/10/27 06:07:05;;;;;;;;;;;;;;;12.45;100.00;97499.31;4946975;29;20308;-77
2023/10/27 06:09:31;;;;;;;;;;;;;;;12.45;100.00;97499.31;4943485;29;19929;-78
2023/10/27 06:11:56;;;;;;;;;;;;;;;12.46;100.00;97505.41;4947107;29;20319;-78
2023/10/27 06:14:22;;;;;;;;;;;;;;;12.44;100.00;97505.59;4943621;29;20010;-76
2023/10/27 06:16:47;;;;;;;;;;;;;;;12.45;100.00;97507.22;4948052;29;19923;-78
2023/10/27 06:19:13;;;;;;;;;;;;;;;12.45;100.00;97512.53;4943331;29;19926;-79
2023/10/27 06:21:38;;;;;;;;;;;;;;;12.47;100.00;97514.97;4946559;29;20045;-76
2023/10/27 06:24:04;;;;;;;;;;;;;;;12.45;100.00;97523.09;4942173;28;19930;-72
2023/10/27 06:26:30;;;;;;;;;;;;;;;12.49;100.00;97524.31;4945384;29;19922;-78
2023/10/27 06:28:57;;;;;;;;;;;;;;;12.50;100.00;97514.56;4946081;28;20288;-78
2023/10/27 06:31:23;;;;;;;;;;;;;;;12.50;100.00;97515.38;4948287;29;20298;-77
2023/10/27 06:33:48;;;;;;;;;;;;;;;12.49;100.00;97523.50;4951034;29;19922;-76
2023/10/27 06:36:13;;;;;;;;;;;;;;;12.53;100.00;97524.75;4947135;29;19926;-76
2023/10/27 06:38:39;;;;;;;;;;;;;;;12.56;100.00;97530.41;4950298;29;19937;-74
2023/10/27 06:41:04;;;;;;;;;;;;;;;12.57;100.00;97542.63;4947971;29;19922;-75
2023/10/27 06:43:30;;;;;;;;;;;;;;;12.57;100.00;97547.94;4947079;29;20024;-74
2023/10/27 06:45:56;;;;;;;;;;;;;;;12.64;100.00;97548.75;4942987;29;20017;-78
2023/10/27 06:48:22;;;;;;;;;;;;;;;12.67;100.00;97542.22;4949408;28;19930;-77
2023/10/27 06:50:48;;;;;;;;;;;;;;;12.70;100.00;97558.53;4951621;29;19937;-77
2023/10/27 06:53:13;;;;;;;;;;;;;;;12.68;100.00;97565.84;4948717;29;19962;-76
2023/10/27 06:55:38;;;;;;;;;;;;;;;12.71;100.00;97570.75;4949015;29;19922;-76
2023/10/27 06:58:04;;;;;;;;;;;;;;;12.69;100.00;97567.47;4949191;29;20025;-74
2023/10/27 07:00:32;;;;;;;;;;;;;;;12.70;100.00;97569.09;4953374;29;19929;-78
2023/10/27 07:02:58;;;;;;;;;;;;;;;12.68;100.00;97571.13;4948396;29;19974;-79
2023/10/27 07:05:24;;;;;;;;;;;;;;;12.64;100.00;97564.63;4947783;29;19984;-77
2023/10/27 07:07:50;;;;;;;;;;;;;;;12.67;100.00;97574.78;4951583;29;20395;-76
2023/10/27 07:10:16;;;;;;;;;;;;;;;12.60;100.00;97581.94;4947639;29;19942;-77
2023/10/27 07:12:43;;;;;;;;;;;;;;;12.48;100.00;97588.84;4950042;28;20298;-78
2023/10/27 07:15:09;;;;;;;;;;;;;;;12.50;100.00;97600.03;4946927;29;20821;-77
2023/10/27 07:17:34;;;;;;;;;;;;;;;12.42;100.00;97587.00;4949524;29;20391;-76
2023/10/27 07:20:00;;;;;;;;;;;;;;;12.39;100.00;97597.16;4948956;28;20014;-77
2023/10/27 07:22:25;;;;;;;;;;;;;;;12.11;100.00;97599.97;4949649;29;19923;-76
2023/10/27 07:24:51;;;;;;;;;;;;;;;12.24;100.00;97594.72;4947826;29;19923;-79
2023/10/27 07:27:16;;;;;;;;;;;;;;;12.19;100.00;97613.00;4947043;29;20017;-75
2023/10/27 07:29:42;;;;;;;;;;;;;;;12.12;100.00;97620.91;4946708;29;19969;-75
2023/10/27 07:32:07;;;;;;;;;;;;;;;12.19;100.00;97621.72;4949763;29;19926;-77
2023/10/27 07:34:33;;;;;;;;;;;;;;;12.20;100.00;97619.91;4949734;28;19926;-76
2023/10/27 07:36:58;;;;;;;;;;;;;;;12.18;100.00;97624.59;4949836;29;19974;-76
2023/10/27 07:39:24;;;;;;;;;;;;;;;12.25;100.00;97628.06;4949183;29;19930;-78
2023/10/27 07:41:52;;;;;;;;;;;;;;;12.31;100.00;97627.28;4948387;29;19934;-75
2023/10/27 07:44:17;;;;;;;;;;;;;;;12.37;100.00;97631.75;4949656;28;19933;-76
2023/10/27 07:46:43;;;;;;;;;;;;;;;12.37;100.00;97638.88;4951826;29;19931;-76
2023/10/27 07:49:09;;;;;;;;;;;;;;;12.32;100.00;97631.53;4946557;29;19968;-78
2023/10/27 07:51:34;;;;;;;;;;;;;;;12.37;100.00;97637.03;4946452;29;19930;-77
2023/10/27 07:53:59;;;;;;;;;;;;;;;12.40;100.00;97634.00;4945578;29;19930;-75
2023/10/27 07:56:25;;;;;;;;;;;;;;;12.39;100.00;97634.19;4946948;28;20299;-75
2023/10/27 07:58:51;;;;;;;;;;;;;;;12.43;100.00;97638.88;4942596;29;19923;-74
2023/10/27 08:01:17;;;;;;;;;;;;;;;12.46;100.00;97642.97;4949807;29;20466;-76
2023/10/27 08:03:42;;;;;;;;;;;;;;;12.45;100.00;97647.44;4947015;29;19975;-76
2023/10/27 08:06:08;;;;;;;;;;;;;;;12.50;100.00;97652.94;4947067;28;20336;-75
2023/10/27 08:08:34;;;;;;;;;;;;;;;12.56;100.00;97640.72;4946802;29;20017;-75
2023/10/27 08:11:00;;;;;;;;;;;;;;;12.60;100.00;97642.78;4949150;29;19922;-76
2023/10/27 08:13:25;;;;;;;;;;;;;;;12.56;100.00;97641.53;4950606;29;19922;-75
2023/10/27 08:15:51;;;;;;;;;;;;;;;12.62;100.00;97648.69;4947904;29;19926;-75
2023/10/27 08:18:16;;;;;;;;;;;;;;;12.67;100.00;97646.22;4947682;29;19922;-75
2023/10/27 08:20:42;;;;;;;;;;;;;;;12.75;100.00;97655.00;4947197;29;19928;-74
2023/10/27 08:23:08;;;;;;;;;;;;;;;12.79;100.00;97656.22;4932759;29;19922;-75
2023/10/27 08:25:33;;;;;;;;;;;;;;;12.86;100.00;97662.34;4949591;29;19923;-74
2023/10/27 08:27:58;;;;;;;;;;;;;;;12.90;100.00;97666.22;4950436;29;19968;-75
2023/10/27 08:30:24;;;;;;;;;;;;;;;12.92;100.00;97674.75;4948784;29;19926;-75
2023/10/27 08:32:49;;;;;;;;;;;;;;;13.01;100.00;97681.50;4950904;29;19923;-74
2023/10/27 08:35:15;;;;;;;;;;;;;;;13.09;100.00;97684.75;4944929;28;19974;-75
2023/10/27 08:37:40;;;;;;;;;;;;;;;13.11;100.00;97703.09;4948200;29;19930;-75
2023/10/27 08:40:12;;;;;;;;;;;;;;;13.09;100.00;97699.81;4949713;29;19923;-75
2023/10/27 08:42:38;;;;;;;;;;;;;;;13.12;100.00;97707.41;4951318;29;19933;-75
2023/10/27 08:45:05;;;;;;;;;;;;;;;13.20;100.00;97701.06;4948866;29;19922;-77
2023/10/27 08:47:33;;;;;;;;;;;;;;;13.21;100.00;97698.22;4949324;29;20261;-74
2023/10/27 08:50:01;;;;;;;;;;;;;;;13.27;100.00;97697.41;4946878;29;20376;-76
2023/10/27 08:52:27;;;;;;;;;;;;;;;13.29;100.00;97700.66;4950610;28;20074;-75
2023/10/27 08:54:52;;;;;;;;;;;;;;;13.31;100.00;97703.91;4948554;29;20330;-77
2023/10/27 08:57:18;;;;;;;;;;;;;;;13.38;100.00;97717.16;4950298;29;20009;-75
2023/10/27 08:59:44;;;;;;;;;;;;;;;13.47;100.00;97715.94;4947429;29;19954;-75
2023/10/27 09:02:10;;;;;;;;;;;;;;;13.50;100.00;97708.38;4949948;28;19970;-76
2023/10/27 09:04:42;;;;;;;;;;;;;;;13.54;100.00;97708.81;4947716;29;19961;-77
2023/10/27 09:07:08;;;;;;;;;;;;;;;13.66;100.00;97714.28;4949924;29;19927;-75
2023/10/27 09:09:33;;;;;;;;;;;;;;;13.74;100.00;97714.03;4946637;29;19923;-76
2023/10/27 09:11:59;;;;;;;;;;;;;;;13.83;100.00;97728.72;4950271;29;19926;-76
2023/10/27 09:14:30;;;;;;;;;;;;;;;13.93;100.00;97729.09;4947066;29;19927;-73
2023/10/27 09:17:06;;;;;;;;;;;;;;;13.93;100.00;97714.00;4948383;29;19926;-74
2023/10/27 09:19:32;;;;;;;;;;;;;;;13.94;100.00;97720.13;4944172;29;19922;-74
2023/10/27 09:21:58;;;;;;;;;;;;;;;13.94;100.00;97714.81;4946645;28;19933;-75
2023/10/27 09:24:24;;;;;;;;;;;;;;;13.97;100.00;97724.19;4945879;29;20295;-74
2023/10/27 09:26:50;;;;;;;;;;;;;;;14.00;100.00;97729.91;4948480;29;19922;-75
2023/10/27 09:29:16;;;;;;;;;;;;;;;13.98;100.00;97726.63;4945654;29;19977;-75
2023/10/27 09:31:43;;;;;;;;;;;;;;;14.00;100.00;97732.56;4947985;29;20379;-74
2023/10/27 09:34:20;;;;;;;;;;;;;;;14.04;100.00;97722.34;4942204;29;19937;-77
2023/10/27 09:36:46;;;;;;;;;;;;;;;14.04;100.00;97717.84;4945130;29;19969;-75
2023/10/27 09:39:16;;;;;;;;;;;;;;;14.06;100.00;97717.66;4943806;29;19926;-75
2023/10/27 09:41:46;;;;;;;;;;;;;;;14.08;100.00;97729.66;4945151;29;19977;-76
2023/10/27 09:44:13;;;;;;;;;;;;;;;14.14;100.00;97735.97;4948633;28;19927;-76
2023/10/27 09:46:39;;;;;;;;;;;;;;;14.17;100.00;97741.69;4945187;29;19931;-75
2023/10/27 09:49:09;;;;;;;;;;;;;;;14.21;100.00;97742.88;4946333;29;19977;-76
2023/10/27 09:51:37;;;;;;;;;;;;;;;14.26;100.00;97745.72;4948084;29;19930;-74
2023/10/27 09:54:04;;;;;;;;;;;;;;;14.31;100.00;97753.06;4931548;29;19928;-74
2023/10/27 09:56:30;;;;;;;;;;;;;;;14.37;100.00;97748.75;4944273;29;19922;-76
2023/10/27 09:58:55;;;;;;;;;;;;;;;14.43;100.00;97750.59;4945579;28;19922;-75
2023/10/27 10:01:21;;;;;;;;;;;;;;;14.49;100.00;97755.06;4942638;29;20358;-76
2023/10/27 10:03:46;;;;;;;;;;;;;;;14.53;100.00;97762.38;4949688;28;19922;-75
2023/10/27 10:06:17;;;;;;;;;;;;;;;14.58;100.00;97767.06;4950256;28;20332;-75
2023/10/27 10:09:02;;;;;;;;;;;;;;;14.61;100.00;97764.78;4934471;29;19918;-74
2023/10/27 10:11:27;;;;;;;;;;;;;;;14.67;100.00;97757.81;4947935;29;19946;-76
2023/10/27 10:13:53;;;;;;;;;;;;;;;14.72;100.00;97761.50;4930870;29;20021;-76
2023/10/27 10:16:19;;;;;;;;;;;;;;;14.75;100.00;97749.59;4942631;29;20028;-73
2023/10/27 10:18:48;;;;;;;;;;;;;;;14.81;100.00;97753.25;4945206;29;19922;-72
2023/10/27 10:21:30;;;;;;;;;;;;;;;14.86;100.00;97761.38;4952603;28;19930;-73
2023/10/27 10:24:03;;;;;;;;;;;;;;;14.91;100.00;97759.72;4946526;29;19930;-72
2023/10/27 10:26:47;;;;;;;;;;;;;;;14.97;100.00;97756.22;4949763;29;20001;-73
2023/10/27 10:29:29;;;;;;;;;;;;;;;15.02;100.00;97751.06;4947393;29;19922;-73
2023/10/27 10:32:14;;;;;;;;;;;;;;;15.07;100.00;97748.59;4949513;29;19923;-74
2023/10/27 10:34:39;;;;;;;;;;;;;;;15.12;100.00;97743.47;4948942;29;19974;-77
2023/10/27 10:37:23;;;;;;;;;;;;;;;15.16;100.00;97731.34;4948756;29;19967;-72
2023/10/27 10:40:08;;;;;;;;;;;;;;;15.21;100.00;97721.91;4952732;29;19926;-74
2023/10/27 10:42:53;;;;;;;;;;;;;;;15.31;100.00;97722.28;4948694;29;19929;-73
2023/10/27 10:45:19;;;;;;;;;;;;;;;15.41;100.00;97722.59;4946360;29;19923;-73
2023/10/27 10:47:44;;;;;;;;;;;;;;;15.50;100.00;97729.22;4950737;29;20383;-73
2023/10/27 10:50:10;;;;;;;;;;;;;;;15.62;100.00;97730.19;4944097;29;19946;-75
2023/10/27 10:52:36;;;;;;;;;;;;;;;15.74;100.00;97728.44;4942426;29;19923;-74
2023/10/27 10:55:02;;;;;;;;;;;;;;;15.84;100.00;97723.44;4947226;29;20391;-74
2023/10/27 10:57:29;;;;;;;;;;;;;;;15.98;100.00;97730.22;4946183;29;19927;-74
2023/10/27 10:59:56;;;;;;;;;;;;;;;16.10;100.00;97726.81;4943526;29;19922;-75
2023/10/27 11:02:21;;;;;;;;;;;;;;;16.24;100.00;97717.66;4948464;29;19966;-75
2023/10/27 11:04:47;;;;;;;;;;;;;;;16.42;100.00;97730.97;4944629;29;19976;-75
2023/10/27 11:07:14;;;;;;;;;;;;;;;16.56;100.00;97737.72;4949375;29;19922;-73
2023/10/27 11:09:40;;;;;;;;;;;;;;;16.67;100.00;97729.00;4928456;29;20061;-73
2023/10/27 11:12:07;;;;;;;;;;;;;;;16.86;100.00;97726.28;4932021;29;20017;-76
2023/10/27 11:14:38;;;;;;;;;;;;;;;16.97;100.00;97717.50;4946052;28;20439;-74
2023/10/27 11:17:04;;;;;;;;;;;;;;;17.16;100.00;97705.75;4949942;29;20504;-77
2023/10/27 11:19:30;;;;;;;;;;;;;;;17.35;100.00;97720.63;4948681;29;19923;-76
2023/10/27 11:21:55;;;;;;;;;;;;;;;17.53;100.00;97719.69;4946365;28;19927;-76
2023/10/27 11:24:22;;;;;;;;;;;;;;;17.72;100.00;97720.44;4944372;29;19954;-77
2023/10/27 11:26:48;;;;;;;;;;;;;;;17.89;100.00;97726.69;4944426;29;19931;-76
2023/10/27 11:29:14;;;;;;;;;;;;;;;18.05;100.00;97715.28;4949049;28;19927;-76
2023/10/27 11:31:41;;;;;;;;;;;;;;;18.21;100.00;97717.22;4949852;29;19923;-77
2023/10/27 11:34:11;;;;;;;;;;;;;;;18.34;100.00;97714.28;4946791;28;20025;-74
2023/10/27 11:36:42;;;;;;;;;;;;;;;18.56;100.00;97710.97;4948364;29;20422;-78
2023/10/27 11:39:21;;;;;;;;;;;;;;;18.73;100.00;97706.53;4947378;29;20434;-78
2023/10/27 11:41:51;;;;;;;;;;;;;;;18.89;100.00;97705.75;4947014;28;19919;-75
2023/10/27 11:44:17;;;;;;;;;;;;;;;19.03;100.00;97701.69;4942901;29;19966;-74
2023/10/27 11:46:52;;;;;;;;;;;;;;;19.18;100.00;97699.28;4951823;29;19953;-77
2023/10/27 11:49:18;;;;;;;;;;;;;;;19.32;100.00;97685.59;4946664;29;19930;-77
2023/10/27 11:51:47;;;;;;;;;;;;;;;19.44;100.00;97684.44;4947792;29;19929;-77
2023/10/27 11:54:12;;;;;;;;;;;;;;;19.57;100.00;97696.69;4943568;28;19922;-75
2023/10/27 11:56:38;;;;;;;;;;;;;;;19.73;100.00;97693.22;4950117;29;19929;-75
2023/10/27 11:59:04;;;;;;;;;;;;;;;19.85;100.00;97693.88;4946275;29;19929;-77
2023/10/27 12:01:30;;;;;;;;;;;;;;;19.97;100.00;97691.91;4948454;29;20375;-75
2023/10/27 12:03:56;;;;;;;;;;;;;;;20.12;100.00;97693.19;4946738;29;19923;-76
2023/10/27 12:06:22;;;;;;;;;;;;;;;20.20;100.00;97700.78;4946805;29;19929;-84
2023/10/27 12:08:47;;;;;;;;;;;;;;;20.28;100.00;97703.00;4932759;29;19949;-85
2023/10/27 12:11:17;;;;;;;;;;;;;;;20.38;100.00;97698.59;4953992;29;20478;-83
2023/10/27 12:13:46;;;;;;;;;;;;;;;20.49;100.00;97702.25;4952077;28;19922;-82
2023/10/27 12:16:11;;;;;;;;;;;;;;;20.61;100.00;97702.09;4948925;29;20080;-78
2023/10/27 12:18:37;;;;;;;;;;;;;;;20.73;100.00;97700.09;4952477;28;19973;-79
2023/10/27 12:21:03;;;;;;;;;;;;;;;20.84;100.00;97702.63;4946226;29;19926;-78
2023/10/27 12:23:32;;;;;;;;;;;;;;;21.01;100.00;97701.69;4948678;28;19970;-81
2023/10/27 12:25:58;;;;;;;;;;;;;;;21.11;100.00;97701.78;4930987;29;19943;-75
2023/10/27 12:28:24;;;;;;;;;;;;;;;21.27;100.00;97706.22;4953222;29;19922;-75
2023/10/27 12:30:50;;;;;;;;;;;;;;;21.44;100.00;97706.91;4947154;28;20306;-76
2023/10/27 12:33:16;;;;;;;;;;;;;;;21.49;100.00;97698.09;4941196;29;19922;-77